sensor_id;sensor_type;location;lat;lon;timestamp;temperature;humidity
4578;DHT22;2301;47.354;8.528;2022-07-29T00:00:13;23.00;67.20
4578;DHT22;2301;47.354;8.528;2022-07-29T00:02:41;23.00;68.20
4578;DHT22;2301;47.354;8.528;2022-07-29T00:05:09;22.90;67.40
4578;DHT22;2301;47.354;8.528;2022-07-29T00:07:39;22.90;67.50
4578;DHT22;2301;47.354;8.528;2022-07-29T00:10:06;22.90;67.60
4578;DHT22;2301;47.354;8.528;2022-07-29T00:12:38;22.90;67.80
4578;DHT22;2301;47.354;8.528;2022-07-29T00:15:10;22.90;68.00
4578;DHT22;2301;47.354;8.528;2022-07-29T00:17:39;22.90;68.20
4578;DHT22;2301;47.354;8.528;2022-07-29T00:20:11;22.80;68.20
4578;DHT22;2301;47.354;8.528;2022-07-29T00:22:38;22.80;68.50
4578;DHT22;2301;47.354;8.528;2022-07-29T00:25:08;22.80;68.60
4578;DHT22;2301;47.354;8.528;2022-07-29T00:27:35;22.80;68.80
4578;DHT22;2301;47.354;8.528;2022-07-29T00:30:03;22.80;68.80
4578;DHT22;2301;47.354;8.528;2022-07-29T00:32:31;22.80;68.60
4578;DHT22;2301;47.354;8.528;2022-07-29T00:34:58;22.80;68.60
4578;DHT22;2301;47.354;8.528;2022-07-29T00:37:44;22.80;68.80
4578;DHT22;2301;47.354;8.528;2022-07-29T00:40:11;22.70;68.60
4578;DHT22;2301;47.354;8.528;2022-07-29T00:42:46;22.70;68.80
4578;DHT22;2301;47.354;8.528;2022-07-29T00:45:14;22.70;68.80
4578;DHT22;2301;47.354;8.528;2022-07-29T00:47:41;22.70;68.80
4578;DHT22;2301;47.354;8.528;2022-07-29T00:50:12;22.70;68.80
4578;DHT22;2301;47.354;8.528;2022-07-29T00:52:41;22.70;68.80
4578;DHT22;2301;47.354;8.528;2022-07-29T00:55:14;22.70;68.80
4578;DHT22;2301;47.354;8.528;2022-07-29T00:57:42;22.70;68.80
4578;DHT22;2301;47.354;8.528;2022-07-29T01:00:12;22.70;68.90
4578;DHT22;2301;47.354;8.528;2022-07-29T01:02:39;22.70;68.80
4578;DHT22;2301;47.354;8.528;2022-07-29T01:05:06;22.70;68.80
4578;DHT22;2301;47.354;8.528;2022-07-29T01:07:37;22.70;68.70
4578;DHT22;2301;47.354;8.528;2022-07-29T01:10:07;22.70;68.80
4578;DHT22;2301;47.354;8.528;2022-07-29T01:12:38;22.70;68.80
4578;DHT22;2301;47.354;8.528;2022-07-29T01:15:08;22.70;68.90
4578;DHT22;2301;47.354;8.528;2022-07-29T01:17:41;22.70;68.90
4578;DHT22;2301;47.354;8.528;2022-07-29T01:20:18;22.70;69.10
4578;DHT22;2301;47.354;8.528;2022-07-29T01:23:20;22.70;68.80
4578;DHT22;2301;47.354;8.528;2022-07-29T01:26:04;22.70;68.90
4578;DHT22;2301;47.354;8.528;2022-07-29T01:28:52;22.70;69.10
4578;DHT22;2301;47.354;8.528;2022-07-29T01:31:27;22.70;69.00
4578;DHT22;2301;47.354;8.528;2022-07-29T01:33:58;22.70;69.00
4578;DHT22;2301;47.354;8.528;2022-07-29T01:36:32;22.70;69.10
4578;DHT22;2301;47.354;8.528;2022-07-29T01:39:06;22.70;69.10
4578;DHT22;2301;47.354;8.528;2022-07-29T01:41:38;22.70;69.20
4578;DHT22;2301;47.354;8.528;2022-07-29T01:44:25;22.70;69.20
4578;DHT22;2301;47.354;8.528;2022-07-29T01:46:57;22.70;69.20
4578;DHT22;2301;47.354;8.528;2022-07-29T01:49:28;22.60;69.20
4578;DHT22;2301;47.354;8.528;2022-07-29T01:52:03;22.60;69.40
4578;DHT22;2301;47.354;8.528;2022-07-29T01:54:34;22.60;69.40
4578;DHT22;2301;47.354;8.528;2022-07-29T01:57:03;22.60;69.50
4578;DHT22;2301;47.354;8.528;2022-07-29T01:59:33;22.50;69.60
4578;DHT22;2301;47.354;8.528;2022-07-29T02:02:02;22.50;69.80
4578;DHT22;2301;47.354;8.528;2022-07-29T02:04:29;22.50;69.90
4578;DHT22;2301;47.354;8.528;2022-07-29T02:07:01;22.40;69.80
4578;DHT22;2301;47.354;8.528;2022-07-29T02:09:30;22.40;69.90
4578;DHT22;2301;47.354;8.528;2022-07-29T02:11:57;22.40;70.00
4578;DHT22;2301;47.354;8.528;2022-07-29T02:14:29;22.40;70.00
4578;DHT22;2301;47.354;8.528;2022-07-29T02:17:00;22.40;70.20
4578;DHT22;2301;47.354;8.528;2022-07-29T02:19:29;22.40;70.20
4578;DHT22;2301;47.354;8.528;2022-07-29T02:21:58;22.40;70.40
4578;DHT22;2301;47.354;8.528;2022-07-29T02:24:33;22.40;70.30
4578;DHT22;2301;47.354;8.528;2022-07-29T02:27:01;22.30;70.40
4578;DHT22;2301;47.354;8.528;2022-07-29T02:29:30;22.30;70.50
4578;DHT22;2301;47.354;8.528;2022-07-29T02:32:01;22.30;70.40
4578;DHT22;2301;47.354;8.528;2022-07-29T02:34:30;22.30;70.60
4578;DHT22;2301;47.354;8.528;2022-07-29T02:37:00;22.30;70.70
4578;DHT22;2301;47.354;8.528;2022-07-29T02:39:31;22.30;70.80
4578;DHT22;2301;47.354;8.528;2022-07-29T02:42:03;22.20;71.20
4578;DHT22;2301;47.354;8.528;2022-07-29T02:44:30;22.20;71.60
4578;DHT22;2301;47.354;8.528;2022-07-29T02:47:04;22.20;71.90
4578;DHT22;2301;47.354;8.528;2022-07-29T02:49:37;22.20;72.20
4578;DHT22;2301;47.354;8.528;2022-07-29T02:52:09;22.20;72.50
4578;DHT22;2301;47.354;8.528;2022-07-29T02:54:42;22.20;72.60
4578;DHT22;2301;47.354;8.528;2022-07-29T02:57:18;22.20;72.60
4578;DHT22;2301;47.354;8.528;2022-07-29T02:59:48;22.20;72.60
4578;DHT22;2301;47.354;8.528;2022-07-29T03:02:20;22.10;72.60
4578;DHT22;2301;47.354;8.528;2022-07-29T03:04:49;22.10;72.70
4578;DHT22;2301;47.354;8.528;2022-07-29T03:07:18;22.10;72.90
4578;DHT22;2301;47.354;8.528;2022-07-29T03:09:50;22.10;73.20
4578;DHT22;2301;47.354;8.528;2022-07-29T03:12:20;22.10;73.40
4578;DHT22;2301;47.354;8.528;2022-07-29T03:14:47;22.00;73.50
4578;DHT22;2301;47.354;8.528;2022-07-29T03:17:15;22.00;73.90
4578;DHT22;2301;47.354;8.528;2022-07-29T03:19:44;22.00;73.70
4578;DHT22;2301;47.354;8.528;2022-07-29T03:22:12;22.00;73.70
4578;DHT22;2301;47.354;8.528;2022-07-29T03:24:40;22.00;74.00
4578;DHT22;2301;47.354;8.528;2022-07-29T03:27:10;22.00;74.30
4578;DHT22;2301;47.354;8.528;2022-07-29T03:29:37;22.00;74.60
4578;DHT22;2301;47.354;8.528;2022-07-29T03:32:05;22.00;74.90
4578;DHT22;2301;47.354;8.528;2022-07-29T03:34:36;22.00;75.00
4578;DHT22;2301;47.354;8.528;2022-07-29T03:37:06;22.00;75.00
4578;DHT22;2301;47.354;8.528;2022-07-29T03:39:36;22.00;75.30
4578;DHT22;2301;47.354;8.528;2022-07-29T03:42:07;22.00;75.70
4578;DHT22;2301;47.354;8.528;2022-07-29T03:44:36;22.00;76.00
4578;DHT22;2301;47.354;8.528;2022-07-29T03:47:06;22.00;76.60
4578;DHT22;2301;47.354;8.528;2022-07-29T03:49:44;22.00;76.80
4578;DHT22;2301;47.354;8.528;2022-07-29T03:52:14;22.00;77.10
4578;DHT22;2301;47.354;8.528;2022-07-29T03:54:44;22.00;77.80
4578;DHT22;2301;47.354;8.528;2022-07-29T03:57:14;22.00;78.30
4578;DHT22;2301;47.354;8.528;2022-07-29T03:59:45;22.00;78.60
4578;DHT22;2301;47.354;8.528;2022-07-29T04:02:16;22.00;78.90
4578;DHT22;2301;47.354;8.528;2022-07-29T04:04:43;21.90;79.40
4578;DHT22;2301;47.354;8.528;2022-07-29T04:07:14;21.90;79.80
4578;DHT22;2301;47.354;8.528;2022-07-29T04:09:44;21.90;80.40
4578;DHT22;2301;47.354;8.528;2022-07-29T04:12:14;21.90;80.50
4578;DHT22;2301;47.354;8.528;2022-07-29T04:14:41;21.90;80.30
4578;DHT22;2301;47.354;8.528;2022-07-29T04:17:11;21.80;80.30
4578;DHT22;2301;47.354;8.528;2022-07-29T04:19:38;21.80;80.30
4578;DHT22;2301;47.354;8.528;2022-07-29T04:22:05;21.70;80.20
4578;DHT22;2301;47.354;8.528;2022-07-29T04:24:34;21.70;80.30
4578;DHT22;2301;47.354;8.528;2022-07-29T04:27:03;21.70;80.60
4578;DHT22;2301;47.354;8.528;2022-07-29T04:29:30;21.70;80.70
4578;DHT22;2301;47.354;8.528;2022-07-29T04:32:02;21.70;80.70
4578;DHT22;2301;47.354;8.528;2022-07-29T04:34:29;21.70;80.80
4578;DHT22;2301;47.354;8.528;2022-07-29T04:36:56;21.70;81.10
4578;DHT22;2301;47.354;8.528;2022-07-29T04:39:23;21.70;81.40
4578;DHT22;2301;47.354;8.528;2022-07-29T04:41:51;21.60;81.20
4578;DHT22;2301;47.354;8.528;2022-07-29T04:44:20;21.60;81.10
4578;DHT22;2301;47.354;8.528;2022-07-29T04:46:47;21.60;81.50
4578;DHT22;2301;47.354;8.528;2022-07-29T04:49:16;21.60;81.50
4578;DHT22;2301;47.354;8.528;2022-07-29T04:51:43;21.60;82.10
4578;DHT22;2301;47.354;8.528;2022-07-29T04:54:10;21.60;82.40
4578;DHT22;2301;47.354;8.528;2022-07-29T04:56:46;21.60;82.30
4578;DHT22;2301;47.354;8.528;2022-07-29T04:59:15;21.60;82.00
4578;DHT22;2301;47.354;8.528;2022-07-29T05:01:49;21.60;81.90
4578;DHT22;2301;47.354;8.528;2022-07-29T05:04:16;21.60;81.70
4578;DHT22;2301;47.354;8.528;2022-07-29T05:06:43;21.60;81.70
4578;DHT22;2301;47.354;8.528;2022-07-29T05:09:12;21.60;82.00
4578;DHT22;2301;47.354;8.528;2022-07-29T05:11:39;21.60;82.50
4578;DHT22;2301;47.354;8.528;2022-07-29T05:14:06;21.60;82.00
4578;DHT22;2301;47.354;8.528;2022-07-29T05:16:36;21.70;81.50
4578;DHT22;2301;47.354;8.528;2022-07-29T05:19:05;21.70;81.00
4578;DHT22;2301;47.354;8.528;2022-07-29T05:21:36;21.60;80.80
4578;DHT22;2301;47.354;8.528;2022-07-29T05:24:05;21.60;80.80
4578;DHT22;2301;47.354;8.528;2022-07-29T05:26:33;21.60;81.10
4578;DHT22;2301;47.354;8.528;2022-07-29T05:29:02;21.60;81.10
4578;DHT22;2301;47.354;8.528;2022-07-29T05:31:34;21.70;80.80
4578;DHT22;2301;47.354;8.528;2022-07-29T05:34:01;21.70;81.40
4578;DHT22;2301;47.354;8.528;2022-07-29T05:36:28;21.70;82.10
4578;DHT22;2301;47.354;8.528;2022-07-29T05:38:57;21.70;82.20
4578;DHT22;2301;47.354;8.528;2022-07-29T05:41:24;21.70;81.30
4578;DHT22;2301;47.354;8.528;2022-07-29T05:43:51;21.80;81.50
4578;DHT22;2301;47.354;8.528;2022-07-29T05:46:21;21.80;81.90
4578;DHT22;2301;47.354;8.528;2022-07-29T05:48:51;21.80;81.50
4578;DHT22;2301;47.354;8.528;2022-07-29T05:51:19;21.80;81.00
4578;DHT22;2301;47.354;8.528;2022-07-29T05:53:48;21.90;80.70
4578;DHT22;2301;47.354;8.528;2022-07-29T05:56:15;21.90;80.80
4578;DHT22;2301;47.354;8.528;2022-07-29T05:58:42;22.00;80.80
4578;DHT22;2301;47.354;8.528;2022-07-29T06:01:10;22.00;80.90
4578;DHT22;2301;47.354;8.528;2022-07-29T06:03:39;22.00;81.00
4578;DHT22;2301;47.354;8.528;2022-07-29T06:06:08;22.10;80.90
4578;DHT22;2301;47.354;8.528;2022-07-29T06:08:35;22.10;80.90
4578;DHT22;2301;47.354;8.528;2022-07-29T06:11:04;22.10;80.70
4578;DHT22;2301;47.354;8.528;2022-07-29T06:13:36;22.10;80.70
4578;DHT22;2301;47.354;8.528;2022-07-29T06:16:03;22.20;80.60
4578;DHT22;2301;47.354;8.528;2022-07-29T06:18:34;22.20;80.60
4578;DHT22;2301;47.354;8.528;2022-07-29T06:21:08;22.20;80.60
4578;DHT22;2301;47.354;8.528;2022-07-29T06:23:36;22.20;80.20
4578;DHT22;2301;47.354;8.528;2022-07-29T06:26:06;22.20;80.70
4578;DHT22;2301;47.354;8.528;2022-07-29T06:28:34;22.20;79.40
4578;DHT22;2301;47.354;8.528;2022-07-29T06:31:01;22.20;79.40
4578;DHT22;2301;47.354;8.528;2022-07-29T06:33:31;22.20;79.40
4578;DHT22;2301;47.354;8.528;2022-07-29T06:35:58;22.20;79.40
4578;DHT22;2301;47.354;8.528;2022-07-29T06:38:29;22.20;79.30
4578;DHT22;2301;47.354;8.528;2022-07-29T06:41:02;22.30;79.20
4578;DHT22;2301;47.354;8.528;2022-07-29T06:43:37;22.20;79.50
4578;DHT22;2301;47.354;8.528;2022-07-29T06:46:10;22.30;80.20
4578;DHT22;2301;47.354;8.528;2022-07-29T06:48:41;22.20;80.30
4578;DHT22;2301;47.354;8.528;2022-07-29T06:51:09;22.20;80.50
4578;DHT22;2301;47.354;8.528;2022-07-29T06:53:40;22.20;81.00
4578;DHT22;2301;47.354;8.528;2022-07-29T06:56:07;22.20;81.60
4578;DHT22;2301;47.354;8.528;2022-07-29T06:58:38;22.20;81.60
4578;DHT22;2301;47.354;8.528;2022-07-29T07:01:06;22.20;82.30
4578;DHT22;2301;47.354;8.528;2022-07-29T07:03:33;22.20;82.60
4578;DHT22;2301;47.354;8.528;2022-07-29T07:06:09;22.10;82.90
4578;DHT22;2301;47.354;8.528;2022-07-29T07:08:42;22.10;82.10
4578;DHT22;2301;47.354;8.528;2022-07-29T07:11:10;22.10;82.00
4578;DHT22;2301;47.354;8.528;2022-07-29T07:13:37;22.10;81.80
4578;DHT22;2301;47.354;8.528;2022-07-29T07:16:04;22.10;82.20
4578;DHT22;2301;47.354;8.528;2022-07-29T07:18:33;22.10;82.80
4578;DHT22;2301;47.354;8.528;2022-07-29T07:21:00;22.10;83.40
4578;DHT22;2301;47.354;8.528;2022-07-29T07:23:27;22.10;83.20
4578;DHT22;2301;47.354;8.528;2022-07-29T07:25:56;22.10;83.40
4578;DHT22;2301;47.354;8.528;2022-07-29T07:28:23;22.10;83.60
4578;DHT22;2301;47.354;8.528;2022-07-29T07:30:50;22.20;84.20
4578;DHT22;2301;47.354;8.528;2022-07-29T07:33:17;22.20;84.30
4578;DHT22;2301;47.354;8.528;2022-07-29T07:35:44;22.20;84.60
4578;DHT22;2301;47.354;8.528;2022-07-29T07:38:13;22.30;85.30
4578;DHT22;2301;47.354;8.528;2022-07-29T07:40:41;22.40;85.50
4578;DHT22;2301;47.354;8.528;2022-07-29T07:43:09;22.50;85.60
4578;DHT22;2301;47.354;8.528;2022-07-29T07:45:39;22.60;85.60
4578;DHT22;2301;47.354;8.528;2022-07-29T07:48:11;22.60;85.10
4578;DHT22;2301;47.354;8.528;2022-07-29T07:50:38;22.60;84.50
4578;DHT22;2301;47.354;8.528;2022-07-29T07:53:05;22.70;84.30
4578;DHT22;2301;47.354;8.528;2022-07-29T07:55:40;22.60;84.40
4578;DHT22;2301;47.354;8.528;2022-07-29T07:58:12;22.60;85.00
4578;DHT22;2301;47.354;8.528;2022-07-29T08:00:40;22.60;84.70
4578;DHT22;2301;47.354;8.528;2022-07-29T08:03:08;22.60;83.60
4578;DHT22;2301;47.354;8.528;2022-07-29T08:05:47;22.60;83.00
4578;DHT22;2301;47.354;8.528;2022-07-29T08:08:16;22.60;83.10
4578;DHT22;2301;47.354;8.528;2022-07-29T08:10:46;22.60;83.70
4578;DHT22;2301;47.354;8.528;2022-07-29T08:13:21;22.50;83.50
4578;DHT22;2301;47.354;8.528;2022-07-29T08:15:50;22.50;84.20
4578;DHT22;2301;47.354;8.528;2022-07-29T08:18:24;22.50;84.80
4578;DHT22;2301;47.354;8.528;2022-07-29T08:20:57;22.50;85.10
4578;DHT22;2301;47.354;8.528;2022-07-29T08:23:26;22.50;85.50
4578;DHT22;2301;47.354;8.528;2022-07-29T08:26:00;22.40;85.70
4578;DHT22;2301;47.354;8.528;2022-07-29T08:28:31;22.50;85.50
4578;DHT22;2301;47.354;8.528;2022-07-29T08:31:00;22.60;86.70
4578;DHT22;2301;47.354;8.528;2022-07-29T08:33:46;22.50;86.20
4578;DHT22;2301;47.354;8.528;2022-07-29T08:36:14;22.60;85.80
4578;DHT22;2301;47.354;8.528;2022-07-29T08:38:41;22.60;85.50
4578;DHT22;2301;47.354;8.528;2022-07-29T08:41:08;22.60;85.00
4578;DHT22;2301;47.354;8.528;2022-07-29T08:43:37;22.60;85.10
4578;DHT22;2301;47.354;8.528;2022-07-29T08:46:04;22.70;85.00
4578;DHT22;2301;47.354;8.528;2022-07-29T08:48:33;22.70;84.90
4578;DHT22;2301;47.354;8.528;2022-07-29T08:51:01;22.80;85.00
4578;DHT22;2301;47.354;8.528;2022-07-29T08:53:30;23.00;85.40
4578;DHT22;2301;47.354;8.528;2022-07-29T08:55:58;23.50;84.20
4578;DHT22;2301;47.354;8.528;2022-07-29T08:58:31;23.90;83.80
4578;DHT22;2301;47.354;8.528;2022-07-29T09:01:01;24.40;82.40
4578;DHT22;2301;47.354;8.528;2022-07-29T09:03:40;24.80;81.40
4578;DHT22;2301;47.354;8.528;2022-07-29T09:06:12;25.10;78.60
4578;DHT22;2301;47.354;8.528;2022-07-29T09:08:42;25.20;78.50
4578;DHT22;2301;47.354;8.528;2022-07-29T09:11:15;25.60;78.80
4578;DHT22;2301;47.354;8.528;2022-07-29T09:13:45;25.80;77.80
4578;DHT22;2301;47.354;8.528;2022-07-29T09:16:13;25.90;76.10
4578;DHT22;2301;47.354;8.528;2022-07-29T09:18:45;26.00;76.20
4578;DHT22;2301;47.354;8.528;2022-07-29T09:21:14;26.00;75.30
4578;DHT22;2301;47.354;8.528;2022-07-29T09:24:05;25.90;74.90
4578;DHT22;2301;47.354;8.528;2022-07-29T09:26:37;25.90;73.50
4578;DHT22;2301;47.354;8.528;2022-07-29T09:29:09;25.80;71.70
4578;DHT22;2301;47.354;8.528;2022-07-29T09:31:42;25.80;70.60
4578;DHT22;2301;47.354;8.528;2022-07-29T09:34:16;25.70;69.80
4578;DHT22;2301;47.354;8.528;2022-07-29T09:36:44;25.80;70.10
4578;DHT22;2301;47.354;8.528;2022-07-29T09:39:16;25.70;69.80
4578;DHT22;2301;47.354;8.528;2022-07-29T09:41:54;25.70;69.40
4578;DHT22;2301;47.354;8.528;2022-07-29T09:44:22;25.80;69.20
4578;DHT22;2301;47.354;8.528;2022-07-29T09:46:59;25.80;69.60
4578;DHT22;2301;47.354;8.528;2022-07-29T09:49:31;25.90;68.50
4578;DHT22;2301;47.354;8.528;2022-07-29T09:52:00;26.00;67.60
4578;DHT22;2301;47.354;8.528;2022-07-29T09:54:29;26.40;67.20
4578;DHT22;2301;47.354;8.528;2022-07-29T09:57:02;26.70;66.40
4578;DHT22;2301;47.354;8.528;2022-07-29T09:59:30;26.90;66.00
4578;DHT22;2301;47.354;8.528;2022-07-29T10:02:00;26.90;64.20
4578;DHT22;2301;47.354;8.528;2022-07-29T10:04:43;26.80;65.00
4578;DHT22;2301;47.354;8.528;2022-07-29T10:07:09;26.80;66.00
4578;DHT22;2301;47.354;8.528;2022-07-29T10:09:36;26.90;66.80
4578;DHT22;2301;47.354;8.528;2022-07-29T10:12:09;27.20;67.00
4578;DHT22;2301;47.354;8.528;2022-07-29T10:14:37;27.30;66.30
4578;DHT22;2301;47.354;8.528;2022-07-29T10:17:06;27.60;65.40
4578;DHT22;2301;47.354;8.528;2022-07-29T10:19:36;27.70;64.30
4578;DHT22;2301;47.354;8.528;2022-07-29T10:22:05;27.70;64.00
4578;DHT22;2301;47.354;8.528;2022-07-29T10:24:37;27.90;64.30
4578;DHT22;2301;47.354;8.528;2022-07-29T10:27:06;27.90;63.50
4578;DHT22;2301;47.354;8.528;2022-07-29T10:29:33;27.90;64.20
4578;DHT22;2301;47.354;8.528;2022-07-29T10:35:20;28.10;63.70
4578;DHT22;2301;47.354;8.528;2022-07-29T10:38:21;28.10;62.80
4578;DHT22;2301;47.354;8.528;2022-07-29T10:40:57;28.10;62.60
4578;DHT22;2301;47.354;8.528;2022-07-29T10:43:47;28.30;63.00
4578;DHT22;2301;47.354;8.528;2022-07-29T10:46:15;28.50;62.30
4578;DHT22;2301;47.354;8.528;2022-07-29T10:49:11;28.60;60.30
4578;DHT22;2301;47.354;8.528;2022-07-29T10:52:11;28.80;59.50
4578;DHT22;2301;47.354;8.528;2022-07-29T10:54:46;29.00;58.30
4578;DHT22;2301;47.354;8.528;2022-07-29T10:57:27;29.00;57.80
4578;DHT22;2301;47.354;8.528;2022-07-29T11:00:30;28.90;58.10
4578;DHT22;2301;47.354;8.528;2022-07-29T11:02:58;28.90;57.50
4578;DHT22;2301;47.354;8.528;2022-07-29T11:05:27;28.70;57.50
4578;DHT22;2301;47.354;8.528;2022-07-29T11:08:21;28.50;57.80
4578;DHT22;2301;47.354;8.528;2022-07-29T11:10:52;28.30;58.00
4578;DHT22;2301;47.354;8.528;2022-07-29T11:13:46;28.20;58.50
4578;DHT22;2301;47.354;8.528;2022-07-29T11:16:19;28.10;58.80
4578;DHT22;2301;47.354;8.528;2022-07-29T11:21:57;27.80;59.30
4578;DHT22;2301;47.354;8.528;2022-07-29T11:24:28;27.80;59.80
4578;DHT22;2301;47.354;8.528;2022-07-29T11:27:14;27.80;60.10
4578;DHT22;2301;47.354;8.528;2022-07-29T11:29:53;27.90;60.40
4578;DHT22;2301;47.354;8.528;2022-07-29T11:32:24;27.90;60.30
4578;DHT22;2301;47.354;8.528;2022-07-29T11:35:17;27.80;60.50
4578;DHT22;2301;47.354;8.528;2022-07-29T11:38:23;27.80;60.00
4578;DHT22;2301;47.354;8.528;2022-07-29T11:40:36;27.60;59.60
4578;DHT22;2301;47.354;8.528;2022-07-29T11:43:03;27.60;60.20
4578;DHT22;2301;47.354;8.528;2022-07-29T11:45:45;27.50;60.00
4578;DHT22;2301;47.354;8.528;2022-07-29T11:48:16;27.50;60.20
4578;DHT22;2301;47.354;8.528;2022-07-29T11:50:46;27.40;60.90
4578;DHT22;2301;47.354;8.528;2022-07-29T11:53:18;27.40;60.60
4578;DHT22;2301;47.354;8.528;2022-07-29T11:55:47;27.40;60.80
4578;DHT22;2301;47.354;8.528;2022-07-29T11:58:24;27.40;60.30
4578;DHT22;2301;47.354;8.528;2022-07-29T12:00:52;27.30;60.60
4578;DHT22;2301;47.354;8.528;2022-07-29T12:03:24;27.30;61.00
4578;DHT22;2301;47.354;8.528;2022-07-29T12:05:54;27.30;61.50
4578;DHT22;2301;47.354;8.528;2022-07-29T12:08:23;27.20;61.40
4578;DHT22;2301;47.354;8.528;2022-07-29T12:10:52;27.20;61.20
4578;DHT22;2301;47.354;8.528;2022-07-29T12:13:20;27.10;60.80
4578;DHT22;2301;47.354;8.528;2022-07-29T12:15:53;27.10;61.30
4578;DHT22;2301;47.354;8.528;2022-07-29T12:18:22;27.00;61.40
4578;DHT22;2301;47.354;8.528;2022-07-29T12:20:56;27.00;62.20
4578;DHT22;2301;47.354;8.528;2022-07-29T12:23:25;27.00;62.40
4578;DHT22;2301;47.354;8.528;2022-07-29T12:25:57;27.00;62.20
4578;DHT22;2301;47.354;8.528;2022-07-29T12:28:24;27.00;61.80
4578;DHT22;2301;47.354;8.528;2022-07-29T12:30:54;27.00;61.90
4578;DHT22;2301;47.354;8.528;2022-07-29T12:33:27;27.00;61.70
4578;DHT22;2301;47.354;8.528;2022-07-29T12:35:56;27.00;62.10
4578;DHT22;2301;47.354;8.528;2022-07-29T12:38:25;26.90;61.60
4578;DHT22;2301;47.354;8.528;2022-07-29T12:40:55;26.90;62.50
4578;DHT22;2301;47.354;8.528;2022-07-29T12:43:27;27.00;62.30
4578;DHT22;2301;47.354;8.528;2022-07-29T12:45:55;26.90;61.80
4578;DHT22;2301;47.354;8.528;2022-07-29T12:48:33;26.90;61.30
4578;DHT22;2301;47.354;8.528;2022-07-29T12:51:02;26.90;61.50
4578;DHT22;2301;47.354;8.528;2022-07-29T12:53:37;26.80;60.70
4578;DHT22;2301;47.354;8.528;2022-07-29T12:56:06;26.80;60.90
4578;DHT22;2301;47.354;8.528;2022-07-29T12:58:41;26.60;62.10
4578;DHT22;2301;47.354;8.528;2022-07-29T13:01:13;26.70;63.40
4578;DHT22;2301;47.354;8.528;2022-07-29T13:03:49;26.60;63.80
4578;DHT22;2301;47.354;8.528;2022-07-29T13:06:29;26.50;63.80
4578;DHT22;2301;47.354;8.528;2022-07-29T13:09:04;26.40;64.50
4578;DHT22;2301;47.354;8.528;2022-07-29T13:11:33;26.30;64.50
4578;DHT22;2301;47.354;8.528;2022-07-29T13:14:00;26.20;64.70
4578;DHT22;2301;47.354;8.528;2022-07-29T13:16:27;26.20;64.70
4578;DHT22;2301;47.354;8.528;2022-07-29T13:19:09;26.10;64.20
4578;DHT22;2301;47.354;8.528;2022-07-29T13:21:40;26.20;63.90
4578;DHT22;2301;47.354;8.528;2022-07-29T13:24:09;26.10;64.10
4578;DHT22;2301;47.354;8.528;2022-07-29T13:26:39;26.10;64.20
4578;DHT22;2301;47.354;8.528;2022-07-29T13:29:07;26.10;64.30
4578;DHT22;2301;47.354;8.528;2022-07-29T13:31:37;26.10;64.20
4578;DHT22;2301;47.354;8.528;2022-07-29T13:34:04;26.00;64.50
4578;DHT22;2301;47.354;8.528;2022-07-29T13:36:33;25.90;64.30
4578;DHT22;2301;47.354;8.528;2022-07-29T13:39:00;25.90;65.00
4578;DHT22;2301;47.354;8.528;2022-07-29T13:41:29;25.90;65.00
4578;DHT22;2301;47.354;8.528;2022-07-29T13:43:56;25.90;66.00
4578;DHT22;2301;47.354;8.528;2022-07-29T13:46:23;25.80;65.90
4578;DHT22;2301;47.354;8.528;2022-07-29T13:48:50;25.80;66.60
4578;DHT22;2301;47.354;8.528;2022-07-29T13:51:17;25.80;67.10
4578;DHT22;2301;47.354;8.528;2022-07-29T13:53:47;25.80;67.60
4578;DHT22;2301;47.354;8.528;2022-07-29T13:56:16;25.80;67.60
4578;DHT22;2301;47.354;8.528;2022-07-29T13:58:46;25.80;68.20
4578;DHT22;2301;47.354;8.528;2022-07-29T14:01:13;25.80;68.10
4578;DHT22;2301;47.354;8.528;2022-07-29T14:03:40;25.80;67.60
4578;DHT22;2301;47.354;8.528;2022-07-29T14:06:13;25.80;67.70
4578;DHT22;2301;47.354;8.528;2022-07-29T14:08:40;25.80;68.70
4578;DHT22;2301;47.354;8.528;2022-07-29T14:11:07;25.60;69.40
4578;DHT22;2301;47.354;8.528;2022-07-29T14:13:34;25.60;70.00
4578;DHT22;2301;47.354;8.528;2022-07-29T14:16:03;25.30;70.50
4578;DHT22;2301;47.354;8.528;2022-07-29T14:18:30;25.10;71.80
4578;DHT22;2301;47.354;8.528;2022-07-29T14:20:57;24.80;73.30
4578;DHT22;2301;47.354;8.528;2022-07-29T14:23:24;24.70;74.10
4578;DHT22;2301;47.354;8.528;2022-07-29T14:25:51;24.50;74.50
4578;DHT22;2301;47.354;8.528;2022-07-29T14:28:21;24.40;74.70
4578;DHT22;2301;47.354;8.528;2022-07-29T14:30:48;24.40;75.30
4578;DHT22;2301;47.354;8.528;2022-07-29T14:33:16;24.30;75.50
4578;DHT22;2301;47.354;8.528;2022-07-29T14:35:44;24.30;76.00
4578;DHT22;2301;47.354;8.528;2022-07-29T14:38:11;24.20;76.00
4578;DHT22;2301;47.354;8.528;2022-07-29T14:40:38;24.20;76.40
4578;DHT22;2301;47.354;8.528;2022-07-29T14:43:09;24.10;76.50
4578;DHT22;2301;47.354;8.528;2022-07-29T14:45:37;24.10;76.30
4578;DHT22;2301;47.354;8.528;2022-07-29T14:48:07;24.00;76.50
4578;DHT22;2301;47.354;8.528;2022-07-29T14:50:35;23.90;76.20
4578;DHT22;2301;47.354;8.528;2022-07-29T14:53:05;23.90;76.70
4578;DHT22;2301;47.354;8.528;2022-07-29T14:55:33;23.80;77.40
4578;DHT22;2301;47.354;8.528;2022-07-29T14:58:00;23.80;78.10
4578;DHT22;2301;47.354;8.528;2022-07-29T15:00:29;23.70;78.20
4578;DHT22;2301;47.354;8.528;2022-07-29T15:02:57;23.60;78.30
4578;DHT22;2301;47.354;8.528;2022-07-29T15:05:28;23.60;79.20
4578;DHT22;2301;47.354;8.528;2022-07-29T15:08:00;23.50;80.20
4578;DHT22;2301;47.354;8.528;2022-07-29T15:10:32;23.50;81.30
4578;DHT22;2301;47.354;8.528;2022-07-29T15:12:59;23.50;81.90
4578;DHT22;2301;47.354;8.528;2022-07-29T15:15:29;23.40;82.10
4578;DHT22;2301;47.354;8.528;2022-07-29T15:18:01;23.40;82.80
4578;DHT22;2301;47.354;8.528;2022-07-29T15:20:28;23.40;83.50
4578;DHT22;2301;47.354;8.528;2022-07-29T15:22:59;23.30;82.90
4578;DHT22;2301;47.354;8.528;2022-07-29T15:25:26;23.30;82.60
4578;DHT22;2301;47.354;8.528;2022-07-29T15:27:55;23.20;83.30
4578;DHT22;2301;47.354;8.528;2022-07-29T15:30:25;23.20;83.60
4578;DHT22;2301;47.354;8.528;2022-07-29T15:32:52;23.10;83.40
4578;DHT22;2301;47.354;8.528;2022-07-29T15:35:21;23.10;83.70
4578;DHT22;2301;47.354;8.528;2022-07-29T15:37:50;23.10;83.90
4578;DHT22;2301;47.354;8.528;2022-07-29T15:40:19;23.10;83.80
4578;DHT22;2301;47.354;8.528;2022-07-29T15:42:46;23.10;83.60
4578;DHT22;2301;47.354;8.528;2022-07-29T15:45:13;23.10;83.70
4578;DHT22;2301;47.354;8.528;2022-07-29T15:47:47;23.10;84.20
4578;DHT22;2301;47.354;8.528;2022-07-29T15:50:16;23.10;84.20
4578;DHT22;2301;47.354;8.528;2022-07-29T15:52:44;23.00;84.10
4578;DHT22;2301;47.354;8.528;2022-07-29T15:55:12;23.00;84.40
4578;DHT22;2301;47.354;8.528;2022-07-29T15:57:41;23.00;84.50
4578;DHT22;2301;47.354;8.528;2022-07-29T16:00:09;23.00;84.20
4578;DHT22;2301;47.354;8.528;2022-07-29T16:02:39;23.00;84.80
4578;DHT22;2301;47.354;8.528;2022-07-29T16:05:06;23.00;85.10
4578;DHT22;2301;47.354;8.528;2022-07-29T16:07:33;23.00;85.40
4578;DHT22;2301;47.354;8.528;2022-07-29T16:10:01;23.00;85.30
4578;DHT22;2301;47.354;8.528;2022-07-29T16:12:35;23.00;85.40
4578;DHT22;2301;47.354;8.528;2022-07-29T16:15:07;23.00;84.80
4578;DHT22;2301;47.354;8.528;2022-07-29T16:17:40;23.10;84.10
4578;DHT22;2301;47.354;8.528;2022-07-29T16:20:08;23.00;84.50
4578;DHT22;2301;47.354;8.528;2022-07-29T16:22:35;23.10;85.00
4578;DHT22;2301;47.354;8.528;2022-07-29T16:25:02;23.00;84.50
4578;DHT22;2301;47.354;8.528;2022-07-29T16:27:29;23.00;84.50
4578;DHT22;2301;47.354;8.528;2022-07-29T16:29:58;23.00;84.50